sensor_id;sensor_type;location;lat;lon;timestamp;P1;durP1;ratioP1;P2;durP2;ratioP2
52838;SDS011;39219;53.678;9.856;2022-07-29T00:01:30;4.10;;;2.50;;
52838;SDS011;39219;53.678;9.856;2022-07-29T00:03:56;4.38;;;2.30;;
52838;SDS011;39219;53.678;9.856;2022-07-29T00:06:23;4.55;;;2.60;;
52838;SDS011;39219;53.678;9.856;2022-07-29T00:08:49;5.18;;;2.50;;
52838;SDS011;39219;53.678;9.856;2022-07-29T00:11:16;3.45;;;2.58;;
52838;SDS011;39219;53.678;9.856;2022-07-29T00:13:43;5.13;;;2.50;;
52838;SDS011;39219;53.678;9.856;2022-07-29T00:16:10;5.18;;;2.30;;
52838;SDS011;39219;53.678;9.856;2022-07-29T00:18:36;3.17;;;2.20;;
52838;SDS011;39219;53.678;9.856;2022-07-29T00:21:04;3.78;;;2.13;;
52838;SDS011;39219;53.678;9.856;2022-07-29T00:23:30;6.30;;;2.67;;
52838;SDS011;39219;53.678;9.856;2022-07-29T00:25:57;3.95;;;2.53;;
52838;SDS011;39219;53.678;9.856;2022-07-29T00:28:23;3.97;;;2.33;;
52838;SDS011;39219;53.678;9.856;2022-07-29T00:30:51;5.85;;;2.63;;
52838;SDS011;39219;53.678;9.856;2022-07-29T00:33:18;4.10;;;2.60;;
52838;SDS011;39219;53.678;9.856;2022-07-29T00:35:44;6.35;;;2.70;;
52838;SDS011;39219;53.678;9.856;2022-07-29T00:38:10;7.38;;;2.80;;
52838;SDS011;39219;53.678;9.856;2022-07-29T00:40:37;5.95;;;2.88;;
52838;SDS011;39219;53.678;9.856;2022-07-29T00:43:03;5.03;;;2.30;;
52838;SDS011;39219;53.678;9.856;2022-07-29T00:45:30;4.85;;;2.35;;
52838;SDS011;39219;53.678;9.856;2022-07-29T00:47:58;6.35;;;2.83;;
52838;SDS011;39219;53.678;9.856;2022-07-29T00:50:25;5.30;;;2.65;;
52838;SDS011;39219;53.678;9.856;2022-07-29T00:52:52;5.90;;;2.72;;
52838;SDS011;39219;53.678;9.856;2022-07-29T00:55:18;4.30;;;2.63;;
52838;SDS011;39219;53.678;9.856;2022-07-29T00:57:45;6.20;;;2.45;;
52838;SDS011;39219;53.678;9.856;2022-07-29T01:00:14;3.63;;;2.50;;
52838;SDS011;39219;53.678;9.856;2022-07-29T01:02:42;5.57;;;2.47;;
52838;SDS011;39219;53.678;9.856;2022-07-29T01:05:10;5.47;;;2.58;;
52838;SDS011;39219;53.678;9.856;2022-07-29T01:07:38;3.85;;;2.33;;
52838;SDS011;39219;53.678;9.856;2022-07-29T01:10:06;2.75;;;2.40;;
52838;SDS011;39219;53.678;9.856;2022-07-29T01:12:35;3.97;;;2.55;;
52838;SDS011;39219;53.678;9.856;2022-07-29T01:15:04;4.47;;;2.58;;
52838;SDS011;39219;53.678;9.856;2022-07-29T01:17:38;4.72;;;2.60;;
52838;SDS011;39219;53.678;9.856;2022-07-29T01:20:13;7.60;;;2.80;;
52838;SDS011;39219;53.678;9.856;2022-07-29T01:23:08;4.93;;;2.75;;
52838;SDS011;39219;53.678;9.856;2022-07-29T01:26:04;6.43;;;2.80;;
52838;SDS011;39219;53.678;9.856;2022-07-29T01:31:48;4.35;;;2.55;;
52838;SDS011;39219;53.678;9.856;2022-07-29T01:34:20;5.82;;;2.30;;
52838;SDS011;39219;53.678;9.856;2022-07-29T01:36:52;6.85;;;2.83;;
52838;SDS011;39219;53.678;9.856;2022-07-29T01:39:26;5.72;;;2.70;;
52838;SDS011;39219;53.678;9.856;2022-07-29T01:41:59;4.13;;;2.72;;
52838;SDS011;39219;53.678;9.856;2022-07-29T01:44:34;4.47;;;2.63;;
52838;SDS011;39219;53.678;9.856;2022-07-29T01:47:05;4.55;;;2.70;;
52838;SDS011;39219;53.678;9.856;2022-07-29T01:49:39;7.63;;;2.72;;
52838;SDS011;39219;53.678;9.856;2022-07-29T01:52:11;5.72;;;2.58;;
52838;SDS011;39219;53.678;9.856;2022-07-29T01:54:42;7.82;;;2.60;;
52838;SDS011;39219;53.678;9.856;2022-07-29T01:57:13;5.15;;;2.85;;
52838;SDS011;39219;53.678;9.856;2022-07-29T01:59:43;5.15;;;2.60;;
52838;SDS011;39219;53.678;9.856;2022-07-29T02:02:12;6.43;;;3.00;;
52838;SDS011;39219;53.678;9.856;2022-07-29T02:04:41;6.50;;;2.80;;
52838;SDS011;39219;53.678;9.856;2022-07-29T02:07:10;6.05;;;2.72;;
52838;SDS011;39219;53.678;9.856;2022-07-29T02:09:41;7.40;;;2.80;;
52838;SDS011;39219;53.678;9.856;2022-07-29T02:12:10;6.57;;;2.50;;
52838;SDS011;39219;53.678;9.856;2022-07-29T02:14:38;4.50;;;2.60;;
52838;SDS011;39219;53.678;9.856;2022-07-29T02:17:08;6.88;;;2.85;;
52838;SDS011;39219;53.678;9.856;2022-07-29T02:19:36;6.35;;;2.90;;
52838;SDS011;39219;53.678;9.856;2022-07-29T02:22:04;6.97;;;3.05;;
52838;SDS011;39219;53.678;9.856;2022-07-29T02:24:32;5.28;;;2.70;;
52838;SDS011;39219;53.678;9.856;2022-07-29T02:27:01;6.82;;;2.90;;
52838;SDS011;39219;53.678;9.856;2022-07-29T02:29:29;5.22;;;2.70;;
52838;SDS011;39219;53.678;9.856;2022-07-29T02:31:58;9.15;;;3.10;;
52838;SDS011;39219;53.678;9.856;2022-07-29T02:34:28;6.60;;;2.60;;
52838;SDS011;39219;53.678;9.856;2022-07-29T02:36:55;6.55;;;2.90;;
52838;SDS011;39219;53.678;9.856;2022-07-29T02:39:22;6.30;;;2.65;;
52838;SDS011;39219;53.678;9.856;2022-07-29T02:41:50;6.25;;;2.67;;
52838;SDS011;39219;53.678;9.856;2022-07-29T02:44:23;5.50;;;2.80;;
52838;SDS011;39219;53.678;9.856;2022-07-29T02:46:52;7.25;;;2.90;;
52838;SDS011;39219;53.678;9.856;2022-07-29T02:49:29;6.18;;;2.70;;
52838;SDS011;39219;53.678;9.856;2022-07-29T02:52:03;7.22;;;2.90;;
52838;SDS011;39219;53.678;9.856;2022-07-29T02:54:37;5.90;;;2.90;;
52838;SDS011;39219;53.678;9.856;2022-07-29T02:57:09;8.15;;;2.90;;
52838;SDS011;39219;53.678;9.856;2022-07-29T02:59:47;5.82;;;2.67;;
52838;SDS011;39219;53.678;9.856;2022-07-29T03:02:16;6.43;;;2.90;;
52838;SDS011;39219;53.678;9.856;2022-07-29T03:04:44;6.43;;;2.85;;
52838;SDS011;39219;53.678;9.856;2022-07-29T03:07:14;6.32;;;2.80;;
52838;SDS011;39219;53.678;9.856;2022-07-29T03:09:44;6.63;;;2.90;;
52838;SDS011;39219;53.678;9.856;2022-07-29T03:12:11;6.47;;;3.15;;
52838;SDS011;39219;53.678;9.856;2022-07-29T03:14:39;7.10;;;3.17;;
52838;SDS011;39219;53.678;9.856;2022-07-29T03:17:07;7.55;;;3.00;;
52838;SDS011;39219;53.678;9.856;2022-07-29T03:19:35;4.97;;;3.10;;
52838;SDS011;39219;53.678;9.856;2022-07-29T03:22:03;5.47;;;3.05;;
52838;SDS011;39219;53.678;9.856;2022-07-29T03:24:31;6.90;;;3.10;;
52838;SDS011;39219;53.678;9.856;2022-07-29T03:26:58;6.50;;;3.35;;
52838;SDS011;39219;53.678;9.856;2022-07-29T03:29:25;6.55;;;3.28;;
52838;SDS011;39219;53.678;9.856;2022-07-29T03:31:52;6.32;;;3.00;;
52838;SDS011;39219;53.678;9.856;2022-07-29T03:34:19;6.38;;;2.97;;
52838;SDS011;39219;53.678;9.856;2022-07-29T03:36:46;6.85;;;2.97;;
52838;SDS011;39219;53.678;9.856;2022-07-29T03:39:15;6.43;;;3.00;;
52838;SDS011;39219;53.678;9.856;2022-07-29T03:41:47;5.55;;;2.90;;
52838;SDS011;39219;53.678;9.856;2022-07-29T03:44:15;7.30;;;3.05;;
52838;SDS011;39219;53.678;9.856;2022-07-29T03:46:43;7.65;;;3.20;;
52838;SDS011;39219;53.678;9.856;2022-07-29T03:49:12;5.35;;;2.90;;
52838;SDS011;39219;53.678;9.856;2022-07-29T03:51:41;7.07;;;3.28;;
52838;SDS011;39219;53.678;9.856;2022-07-29T03:54:08;7.13;;;3.03;;
52838;SDS011;39219;53.678;9.856;2022-07-29T03:56:37;5.15;;;3.10;;
52838;SDS011;39219;53.678;9.856;2022-07-29T03:59:05;7.45;;;3.22;;
52838;SDS011;39219;53.678;9.856;2022-07-29T04:01:33;7.80;;;3.22;;
52838;SDS011;39219;53.678;9.856;2022-07-29T04:04:01;6.18;;;3.10;;
52838;SDS011;39219;53.678;9.856;2022-07-29T04:06:36;6.97;;;3.13;;
52838;SDS011;39219;53.678;9.856;2022-07-29T04:09:04;6.72;;;3.33;;
52838;SDS011;39219;53.678;9.856;2022-07-29T04:11:30;6.95;;;3.50;;
52838;SDS011;39219;53.678;9.856;2022-07-29T04:13:58;7.45;;;3.28;;
52838;SDS011;39219;53.678;9.856;2022-07-29T04:16:25;6.63;;;2.92;;
52838;SDS011;39219;53.678;9.856;2022-07-29T04:18:52;5.70;;;3.13;;
52838;SDS011;39219;53.678;9.856;2022-07-29T04:21:18;5.35;;;3.03;;
52838;SDS011;39219;53.678;9.856;2022-07-29T04:23:45;6.38;;;3.10;;
52838;SDS011;39219;53.678;9.856;2022-07-29T04:26:14;5.75;;;3.13;;
52838;SDS011;39219;53.678;9.856;2022-07-29T04:28:41;7.97;;;3.42;;
52838;SDS011;39219;53.678;9.856;2022-07-29T04:31:09;8.10;;;3.30;;
52838;SDS011;39219;53.678;9.856;2022-07-29T04:33:35;8.00;;;3.20;;
52838;SDS011;39219;53.678;9.856;2022-07-29T04:36:02;7.03;;;3.13;;
52838;SDS011;39219;53.678;9.856;2022-07-29T04:38:29;10.35;;;3.42;;
52838;SDS011;39219;53.678;9.856;2022-07-29T04:40:56;6.70;;;3.40;;
52838;SDS011;39219;53.678;9.856;2022-07-29T04:43:22;7.22;;;3.03;;
52838;SDS011;39219;53.678;9.856;2022-07-29T04:45:49;5.90;;;3.00;;
52838;SDS011;39219;53.678;9.856;2022-07-29T04:48:17;5.57;;;3.00;;
52838;SDS011;39219;53.678;9.856;2022-07-29T04:50:44;8.10;;;3.10;;
52838;SDS011;39219;53.678;9.856;2022-07-29T04:53:10;8.18;;;3.03;;
52838;SDS011;39219;53.678;9.856;2022-07-29T04:55:37;7.75;;;3.10;;
52838;SDS011;39219;53.678;9.856;2022-07-29T04:58:03;7.85;;;3.00;;
52838;SDS011;39219;53.678;9.856;2022-07-29T05:00:30;4.95;;;3.03;;
52838;SDS011;39219;53.678;9.856;2022-07-29T05:02:56;6.85;;;3.17;;
52838;SDS011;39219;53.678;9.856;2022-07-29T05:05:24;8.63;;;3.20;;
52838;SDS011;39219;53.678;9.856;2022-07-29T05:07:50;8.23;;;3.47;;
52838;SDS011;39219;53.678;9.856;2022-07-29T05:10:17;5.88;;;3.03;;
52838;SDS011;39219;53.678;9.856;2022-07-29T05:12:44;6.15;;;2.90;;
52838;SDS011;39219;53.678;9.856;2022-07-29T05:15:10;6.82;;;3.13;;
52838;SDS011;39219;53.678;9.856;2022-07-29T05:17:37;6.15;;;3.28;;
52838;SDS011;39219;53.678;9.856;2022-07-29T05:20:03;6.40;;;3.13;;
52838;SDS011;39219;53.678;9.856;2022-07-29T05:22:32;5.20;;;3.00;;
52838;SDS011;39219;53.678;9.856;2022-07-29T05:24:59;7.07;;;3.20;;
52838;SDS011;39219;53.678;9.856;2022-07-29T05:27:25;5.30;;;3.17;;
52838;SDS011;39219;53.678;9.856;2022-07-29T05:29:52;8.57;;;3.28;;
52838;SDS011;39219;53.678;9.856;2022-07-29T05:32:18;6.05;;;3.30;;
52838;SDS011;39219;53.678;9.856;2022-07-29T05:34:45;6.47;;;3.15;;
52838;SDS011;39219;53.678;9.856;2022-07-29T05:37:11;6.05;;;3.10;;
52838;SDS011;39219;53.678;9.856;2022-07-29T05:39:40;5.80;;;3.05;;
52838;SDS011;39219;53.678;9.856;2022-07-29T05:42:07;6.40;;;2.97;;
52838;SDS011;39219;53.678;9.856;2022-07-29T05:44:35;5.20;;;2.90;;
52838;SDS011;39219;53.678;9.856;2022-07-29T05:47:02;5.50;;;2.92;;
52838;SDS011;39219;53.678;9.856;2022-07-29T05:49:29;9.02;;;2.80;;
52838;SDS011;39219;53.678;9.856;2022-07-29T05:51:56;6.00;;;3.13;;
52838;SDS011;39219;53.678;9.856;2022-07-29T05:54:23;6.25;;;3.10;;
52838;SDS011;39219;53.678;9.856;2022-07-29T05:56:51;6.35;;;2.80;;
52838;SDS011;39219;53.678;9.856;2022-07-29T05:59:17;7.60;;;2.95;;
52838;SDS011;39219;53.678;9.856;2022-07-29T06:01:44;4.82;;;2.72;;
52838;SDS011;39219;53.678;9.856;2022-07-29T06:04:10;7.00;;;3.15;;
52838;SDS011;39219;53.678;9.856;2022-07-29T06:06:37;7.32;;;3.20;;
52838;SDS011;39219;53.678;9.856;2022-07-29T06:09:03;7.95;;;3.10;;
52838;SDS011;39219;53.678;9.856;2022-07-29T06:11:30;6.82;;;3.17;;
52838;SDS011;39219;53.678;9.856;2022-07-29T06:13:57;7.70;;;3.10;;
52838;SDS011;39219;53.678;9.856;2022-07-29T06:16:24;7.57;;;2.90;;
52838;SDS011;39219;53.678;9.856;2022-07-29T06:18:50;6.70;;;3.00;;
52838;SDS011;39219;53.678;9.856;2022-07-29T06:21:17;5.65;;;3.05;;
52838;SDS011;39219;53.678;9.856;2022-07-29T06:23:43;6.32;;;3.20;;
52838;SDS011;39219;53.678;9.856;2022-07-29T06:26:10;6.35;;;2.92;;
52838;SDS011;39219;53.678;9.856;2022-07-29T06:28:36;7.43;;;3.10;;
52838;SDS011;39219;53.678;9.856;2022-07-29T06:31:04;5.60;;;2.83;;
52838;SDS011;39219;53.678;9.856;2022-07-29T06:33:31;5.60;;;2.92;;
52838;SDS011;39219;53.678;9.856;2022-07-29T06:35:58;8.75;;;3.03;;
52838;SDS011;39219;53.678;9.856;2022-07-29T06:38:25;6.07;;;2.88;;
52838;SDS011;39219;53.678;9.856;2022-07-29T06:40:51;5.55;;;2.65;;
52838;SDS011;39219;53.678;9.856;2022-07-29T06:43:28;5.57;;;3.15;;
52838;SDS011;39219;53.678;9.856;2022-07-29T06:45:57;5.95;;;2.85;;
52838;SDS011;39219;53.678;9.856;2022-07-29T06:48:26;4.50;;;2.67;;
52838;SDS011;39219;53.678;9.856;2022-07-29T06:50:53;4.15;;;2.90;;
52838;SDS011;39219;53.678;9.856;2022-07-29T06:53:19;5.20;;;2.63;;
52838;SDS011;39219;53.678;9.856;2022-07-29T06:55:46;5.28;;;2.70;;
52838;SDS011;39219;53.678;9.856;2022-07-29T06:58:13;8.48;;;2.88;;
52838;SDS011;39219;53.678;9.856;2022-07-29T07:00:41;6.10;;;2.72;;
52838;SDS011;39219;53.678;9.856;2022-07-29T07:03:07;6.18;;;2.78;;
52838;SDS011;39219;53.678;9.856;2022-07-29T07:05:35;6.05;;;2.85;;
52838;SDS011;39219;53.678;9.856;2022-07-29T07:08:01;4.97;;;2.70;;
52838;SDS011;39219;53.678;9.856;2022-07-29T07:10:28;5.03;;;2.83;;
52838;SDS011;39219;53.678;9.856;2022-07-29T07:12:55;6.45;;;2.97;;
52838;SDS011;39219;53.678;9.856;2022-07-29T07:15:21;8.18;;;3.20;;
52838;SDS011;39219;53.678;9.856;2022-07-29T07:17:48;4.75;;;2.63;;
52838;SDS011;39219;53.678;9.856;2022-07-29T07:20:15;4.63;;;2.92;;
52838;SDS011;39219;53.678;9.856;2022-07-29T07:22:43;6.93;;;2.72;;
52838;SDS011;39219;53.678;9.856;2022-07-29T07:25:09;6.55;;;3.00;;
52838;SDS011;39219;53.678;9.856;2022-07-29T07:27:36;7.40;;;2.80;;
52838;SDS011;39219;53.678;9.856;2022-07-29T07:30:04;5.15;;;2.90;;
52838;SDS011;39219;53.678;9.856;2022-07-29T07:32:31;6.10;;;2.75;;
52838;SDS011;39219;53.678;9.856;2022-07-29T07:34:58;4.70;;;2.65;;
52838;SDS011;39219;53.678;9.856;2022-07-29T07:37:25;7.28;;;3.00;;
52838;SDS011;39219;53.678;9.856;2022-07-29T07:39:53;9.55;;;2.70;;
52838;SDS011;39219;53.678;9.856;2022-07-29T07:42:20;5.20;;;2.55;;
52838;SDS011;39219;53.678;9.856;2022-07-29T07:44:47;4.40;;;2.42;;
52838;SDS011;39219;53.678;9.856;2022-07-29T07:47:13;7.75;;;2.67;;
52838;SDS011;39219;53.678;9.856;2022-07-29T07:49:40;6.30;;;2.63;;
52838;SDS011;39219;53.678;9.856;2022-07-29T07:52:07;6.18;;;2.80;;
52838;SDS011;39219;53.678;9.856;2022-07-29T07:54:33;6.00;;;2.75;;
52838;SDS011;39219;53.678;9.856;2022-07-29T07:57:02;4.13;;;2.58;;
52838;SDS011;39219;53.678;9.856;2022-07-29T07:59:29;5.35;;;2.42;;
52838;SDS011;39219;53.678;9.856;2022-07-29T08:01:55;6.57;;;2.70;;
52838;SDS011;39219;53.678;9.856;2022-07-29T08:04:22;5.97;;;2.65;;
52838;SDS011;39219;53.678;9.856;2022-07-29T08:06:49;7.65;;;2.60;;
52838;SDS011;39219;53.678;9.856;2022-07-29T08:09:19;6.70;;;2.72;;
52838;SDS011;39219;53.678;9.856;2022-07-29T08:11:45;4.30;;;2.53;;
52838;SDS011;39219;53.678;9.856;2022-07-29T08:14:13;5.97;;;2.75;;
52838;SDS011;39219;53.678;9.856;2022-07-29T08:16:40;4.80;;;2.40;;
52838;SDS011;39219;53.678;9.856;2022-07-29T08:19:07;6.22;;;2.85;;
52838;SDS011;39219;53.678;9.856;2022-07-29T08:21:36;4.60;;;2.72;;
52838;SDS011;39219;53.678;9.856;2022-07-29T08:24:02;5.57;;;2.60;;
52838;SDS011;39219;53.678;9.856;2022-07-29T08:26:47;6.97;;;3.10;;
52838;SDS011;39219;53.678;9.856;2022-07-29T08:29:14;6.55;;;2.80;;
52838;SDS011;39219;53.678;9.856;2022-07-29T08:31:41;6.25;;;3.10;;
52838;SDS011;39219;53.678;9.856;2022-07-29T08:34:08;5.22;;;2.63;;
52838;SDS011;39219;53.678;9.856;2022-07-29T08:36:35;5.82;;;2.80;;
52838;SDS011;39219;53.678;9.856;2022-07-29T08:39:02;5.72;;;2.90;;
52838;SDS011;39219;53.678;9.856;2022-07-29T08:41:29;8.20;;;2.95;;
52838;SDS011;39219;53.678;9.856;2022-07-29T08:43:56;5.20;;;2.85;;
52838;SDS011;39219;53.678;9.856;2022-07-29T08:46:24;5.90;;;2.88;;
52838;SDS011;39219;53.678;9.856;2022-07-29T08:48:50;5.28;;;2.65;;
52838;SDS011;39219;53.678;9.856;2022-07-29T08:51:17;7.03;;;2.80;;
52838;SDS011;39219;53.678;9.856;2022-07-29T08:53:46;6.07;;;2.78;;
52838;SDS011;39219;53.678;9.856;2022-07-29T08:56:15;5.68;;;2.60;;
52838;SDS011;39219;53.678;9.856;2022-07-29T08:58:43;6.68;;;2.70;;
52838;SDS011;39219;53.678;9.856;2022-07-29T09:01:10;4.82;;;2.40;;
52838;SDS011;39219;53.678;9.856;2022-07-29T09:03:41;6.43;;;2.72;;
52838;SDS011;39219;53.678;9.856;2022-07-29T09:06:12;7.10;;;2.80;;
52838;SDS011;39219;53.678;9.856;2022-07-29T09:08:39;6.38;;;2.97;;
52838;SDS011;39219;53.678;9.856;2022-07-29T09:11:06;4.63;;;2.53;;
52838;SDS011;39219;53.678;9.856;2022-07-29T09:13:32;5.90;;;2.40;;
52838;SDS011;39219;53.678;9.856;2022-07-29T09:16:01;5.43;;;2.67;;
52838;SDS011;39219;53.678;9.856;2022-07-29T09:18:34;6.85;;;2.70;;
52838;SDS011;39219;53.678;9.856;2022-07-29T09:21:03;5.18;;;2.50;;
52838;SDS011;39219;53.678;9.856;2022-07-29T09:24:01;4.88;;;2.65;;
52838;SDS011;39219;53.678;9.856;2022-07-29T09:26:29;4.90;;;2.42;;
52838;SDS011;39219;53.678;9.856;2022-07-29T09:28:57;5.13;;;2.40;;
52838;SDS011;39219;53.678;9.856;2022-07-29T09:31:27;5.25;;;2.38;;
52838;SDS011;39219;53.678;9.856;2022-07-29T09:33:59;5.53;;;2.50;;
52838;SDS011;39219;53.678;9.856;2022-07-29T09:36:27;5.13;;;2.33;;
52838;SDS011;39219;53.678;9.856;2022-07-29T09:38:57;5.45;;;2.35;;
52838;SDS011;39219;53.678;9.856;2022-07-29T09:41:25;5.82;;;2.47;;
52838;SDS011;39219;53.678;9.856;2022-07-29T09:43:53;4.53;;;2.40;;
52838;SDS011;39219;53.678;9.856;2022-07-29T09:46:20;4.60;;;2.10;;
52838;SDS011;39219;53.678;9.856;2022-07-29T09:48:52;5.13;;;2.47;;
52838;SDS011;39219;53.678;9.856;2022-07-29T09:51:33;4.82;;;2.33;;
52838;SDS011;39219;53.678;9.856;2022-07-29T09:53:59;5.93;;;2.63;;
52838;SDS011;39219;53.678;9.856;2022-07-29T09:56:38;5.75;;;2.20;;
52838;SDS011;39219;53.678;9.856;2022-07-29T09:59:05;4.82;;;2.20;;
52838;SDS011;39219;53.678;9.856;2022-07-29T10:01:32;4.22;;;2.13;;
52838;SDS011;39219;53.678;9.856;2022-07-29T10:03:58;4.80;;;1.98;;
52838;SDS011;39219;53.678;9.856;2022-07-29T10:06:25;3.97;;;2.00;;
52838;SDS011;39219;53.678;9.856;2022-07-29T10:08:53;4.15;;;2.30;;
52838;SDS011;39219;53.678;9.856;2022-07-29T10:11:20;3.30;;;2.10;;
52838;SDS011;39219;53.678;9.856;2022-07-29T10:13:47;3.20;;;1.90;;
52838;SDS011;39219;53.678;9.856;2022-07-29T10:16:15;3.80;;;1.98;;
52838;SDS011;39219;53.678;9.856;2022-07-29T10:18:42;6.00;;;2.33;;
52838;SDS011;39219;53.678;9.856;2022-07-29T10:21:11;5.78;;;2.10;;
52838;SDS011;39219;53.678;9.856;2022-07-29T10:23:38;3.22;;;1.95;;
52838;SDS011;39219;53.678;9.856;2022-07-29T10:26:08;4.75;;;1.95;;
52838;SDS011;39219;53.678;9.856;2022-07-29T10:28:36;3.75;;;2.13;;
52838;SDS011;39219;53.678;9.856;2022-07-29T10:31:04;4.90;;;1.80;;
52838;SDS011;39219;53.678;9.856;2022-07-29T10:33:39;4.53;;;2.00;;
52838;SDS011;39219;53.678;9.856;2022-07-29T10:36:18;6.55;;;2.40;;
52838;SDS011;39219;53.678;9.856;2022-07-29T10:38:55;4.53;;;2.20;;
52838;SDS011;39219;53.678;9.856;2022-07-29T10:41:37;4.32;;;1.90;;
52838;SDS011;39219;53.678;9.856;2022-07-29T10:44:14;6.03;;;2.17;;
52838;SDS011;39219;53.678;9.856;2022-07-29T10:46:43;4.00;;;2.33;;
52838;SDS011;39219;53.678;9.856;2022-07-29T10:49:11;4.05;;;2.08;;
52838;SDS011;39219;53.678;9.856;2022-07-29T10:51:53;3.63;;;1.98;;
52838;SDS011;39219;53.678;9.856;2022-07-29T10:54:41;3.25;;;2.08;;
52838;SDS011;39219;53.678;9.856;2022-07-29T10:57:15;3.13;;;2.10;;
52838;SDS011;39219;53.678;9.856;2022-07-29T10:59:51;6.47;;;2.38;;
52838;SDS011;39219;53.678;9.856;2022-07-29T11:02:54;3.55;;;2.05;;
52838;SDS011;39219;53.678;9.856;2022-07-29T11:05:23;4.07;;;2.10;;
52838;SDS011;39219;53.678;9.856;2022-07-29T11:10:49;3.30;;;2.15;;
52838;SDS011;39219;53.678;9.856;2022-07-29T11:16:15;5.65;;;2.10;;
52838;SDS011;39219;53.678;9.856;2022-07-29T11:21:46;4.75;;;1.83;;
52838;SDS011;39219;53.678;9.856;2022-07-29T11:24:16;4.18;;;1.73;;
52838;SDS011;39219;53.678;9.856;2022-07-29T11:29:40;3.38;;;1.65;;
52838;SDS011;39219;53.678;9.856;2022-07-29T11:32:15;3.75;;;1.90;;
52838;SDS011;39219;53.678;9.856;2022-07-29T11:34:45;3.45;;;1.80;;
52838;SDS011;39219;53.678;9.856;2022-07-29T11:37:19;4.60;;;1.75;;
52838;SDS011;39219;53.678;9.856;2022-07-29T11:42:39;3.40;;;1.70;;
52838;SDS011;39219;53.678;9.856;2022-07-29T11:45:09;5.35;;;2.03;;
52838;SDS011;39219;53.678;9.856;2022-07-29T11:47:38;5.03;;;1.92;;
52838;SDS011;39219;53.678;9.856;2022-07-29T11:50:07;4.25;;;1.98;;
52838;SDS011;39219;53.678;9.856;2022-07-29T11:52:35;5.55;;;2.17;;
52838;SDS011;39219;53.678;9.856;2022-07-29T11:55:08;3.97;;;1.70;;
52838;SDS011;39219;53.678;9.856;2022-07-29T11:57:35;4.45;;;1.80;;
52838;SDS011;39219;53.678;9.856;2022-07-29T12:00:03;6.18;;;2.10;;
52838;SDS011;39219;53.678;9.856;2022-07-29T12:02:40;5.22;;;2.13;;
52838;SDS011;39219;53.678;9.856;2022-07-29T12:05:08;6.03;;;1.95;;
52838;SDS011;39219;53.678;9.856;2022-07-29T12:07:36;5.32;;;1.75;;
52838;SDS011;39219;53.678;9.856;2022-07-29T12:10:04;4.10;;;2.17;;
52838;SDS011;39219;53.678;9.856;2022-07-29T12:12:32;5.90;;;2.13;;
52838;SDS011;39219;53.678;9.856;2022-07-29T12:15:09;5.03;;;2.22;;
52838;SDS011;39219;53.678;9.856;2022-07-29T12:17:37;5.10;;;2.10;;
52838;SDS011;39219;53.678;9.856;2022-07-29T12:20:06;4.88;;;1.92;;
52838;SDS011;39219;53.678;9.856;2022-07-29T12:22:33;4.95;;;1.90;;
52838;SDS011;39219;53.678;9.856;2022-07-29T12:25:02;4.22;;;1.90;;
52838;SDS011;39219;53.678;9.856;2022-07-29T12:27:30;5.70;;;1.95;;
52838;SDS011;39219;53.678;9.856;2022-07-29T12:29:57;3.30;;;1.80;;
52838;SDS011;39219;53.678;9.856;2022-07-29T12:32:30;5.07;;;2.00;;
52838;SDS011;39219;53.678;9.856;2022-07-29T12:34:57;4.15;;;2.05;;
52838;SDS011;39219;53.678;9.856;2022-07-29T12:37:26;4.93;;;2.05;;
52838;SDS011;39219;53.678;9.856;2022-07-29T12:39:52;4.95;;;2.38;;
52838;SDS011;39219;53.678;9.856;2022-07-29T12:42:19;6.32;;;2.00;;
52838;SDS011;39219;53.678;9.856;2022-07-29T12:44:46;4.90;;;2.22;;
52838;SDS011;39219;53.678;9.856;2022-07-29T12:47:14;4.70;;;1.90;;
52838;SDS011;39219;53.678;9.856;2022-07-29T12:49:42;6.82;;;2.10;;
52838;SDS011;39219;53.678;9.856;2022-07-29T12:52:28;5.32;;;2.22;;
52838;SDS011;39219;53.678;9.856;2022-07-29T12:54:55;5.22;;;2.20;;
52838;SDS011;39219;53.678;9.856;2022-07-29T12:57:22;3.67;;;2.20;;
52838;SDS011;39219;53.678;9.856;2022-07-29T13:02:42;3.28;;;2.10;;
52838;SDS011;39219;53.678;9.856;2022-07-29T13:05:09;3.88;;;2.20;;
52838;SDS011;39219;53.678;9.856;2022-07-29T13:07:39;4.18;;;2.30;;
52838;SDS011;39219;53.678;9.856;2022-07-29T13:10:12;4.43;;;2.15;;
52838;SDS011;39219;53.678;9.856;2022-07-29T13:15:28;5.72;;;2.55;;
52838;SDS011;39219;53.678;9.856;2022-07-29T13:17:55;5.20;;;2.25;;
52838;SDS011;39219;53.678;9.856;2022-07-29T13:20:23;3.53;;;2.35;;
52838;SDS011;39219;53.678;9.856;2022-07-29T13:22:53;5.03;;;2.53;;
52838;SDS011;39219;53.678;9.856;2022-07-29T13:25:23;5.40;;;2.30;;
52838;SDS011;39219;53.678;9.856;2022-07-29T13:27:51;6.57;;;2.30;;
52838;SDS011;39219;53.678;9.856;2022-07-29T13:30:19;5.38;;;2.45;;
52838;SDS011;39219;53.678;9.856;2022-07-29T13:32:46;5.65;;;2.40;;
52838;SDS011;39219;53.678;9.856;2022-07-29T13:35:13;4.10;;;2.28;;
52838;SDS011;39219;53.678;9.856;2022-07-29T13:37:40;4.80;;;2.35;;
52838;SDS011;39219;53.678;9.856;2022-07-29T13:40:09;5.38;;;2.40;;
52838;SDS011;39219;53.678;9.856;2022-07-29T13:42:36;8.23;;;2.45;;
52838;SDS011;39219;53.678;9.856;2022-07-29T13:45:04;7.05;;;2.60;;
52838;SDS011;39219;53.678;9.856;2022-07-29T13:47:31;4.25;;;2.47;;
52838;SDS011;39219;53.678;9.856;2022-07-29T13:49:58;5.75;;;2.33;;
52838;SDS011;39219;53.678;9.856;2022-07-29T13:52:25;7.53;;;2.60;;
52838;SDS011;39219;53.678;9.856;2022-07-29T13:54:51;6.35;;;2.50;;
52838;SDS011;39219;53.678;9.856;2022-07-29T13:57:19;6.60;;;2.40;;
52838;SDS011;39219;53.678;9.856;2022-07-29T13:59:46;5.30;;;2.60;;
52838;SDS011;39219;53.678;9.856;2022-07-29T14:02:12;5.00;;;2.33;;
52838;SDS011;39219;53.678;9.856;2022-07-29T14:04:38;7.05;;;2.55;;
52838;SDS011;39219;53.678;9.856;2022-07-29T14:07:05;7.70;;;2.75;;
52838;SDS011;39219;53.678;9.856;2022-07-29T14:09:32;6.88;;;2.50;;
52838;SDS011;39219;53.678;9.856;2022-07-29T14:11:59;8.73;;;2.40;;
52838;SDS011;39219;53.678;9.856;2022-07-29T14:14:28;5.40;;;2.42;;
52838;SDS011;39219;53.678;9.856;2022-07-29T14:16:56;5.28;;;2.60;;
52838;SDS011;39219;53.678;9.856;2022-07-29T14:19:23;5.50;;;2.60;;
52838;SDS011;39219;53.678;9.856;2022-07-29T14:21:49;5.38;;;2.65;;
52838;SDS011;39219;53.678;9.856;2022-07-29T14:24:16;3.65;;;2.50;;
52838;SDS011;39219;53.678;9.856;2022-07-29T14:26:42;5.75;;;2.85;;
52838;SDS011;39219;53.678;9.856;2022-07-29T14:29:09;6.43;;;2.40;;
52838;SDS011;39219;53.678;9.856;2022-07-29T14:31:37;5.65;;;2.75;;
52838;SDS011;39219;53.678;9.856;2022-07-29T14:34:03;6.43;;;2.50;;
52838;SDS011;39219;53.678;9.856;2022-07-29T14:36:30;5.30;;;2.60;;
52838;SDS011;39219;53.678;9.856;2022-07-29T14:38:56;6.50;;;2.50;;
52838;SDS011;39219;53.678;9.856;2022-07-29T14:41:23;5.20;;;2.53;;
52838;SDS011;39219;53.678;9.856;2022-07-29T14:43:50;5.53;;;3.00;;
52838;SDS011;39219;53.678;9.856;2022-07-29T14:46:18;5.40;;;2.60;;
52838;SDS011;39219;53.678;9.856;2022-07-29T14:48:46;4.80;;;2.45;;
52838;SDS011;39219;53.678;9.856;2022-07-29T14:51:12;5.07;;;2.20;;
52838;SDS011;39219;53.678;9.856;2022-07-29T14:53:39;7.78;;;2.60;;
52838;SDS011;39219;53.678;9.856;2022-07-29T14:56:05;9.00;;;2.60;;
52838;SDS011;39219;53.678;9.856;2022-07-29T14:58:32;5.95;;;2.70;;
52838;SDS011;39219;53.678;9.856;2022-07-29T15:00:58;7.85;;;2.70;;
52838;SDS011;39219;53.678;9.856;2022-07-29T15:03:25;3.72;;;2.33;;
52838;SDS011;39219;53.678;9.856;2022-07-29T15:05:54;6.40;;;2.50;;
52838;SDS011;39219;53.678;9.856;2022-07-29T15:08:21;6.28;;;2.35;;
52838;SDS011;39219;53.678;9.856;2022-07-29T15:10:47;6.78;;;2.65;;
52838;SDS011;39219;53.678;9.856;2022-07-29T15:13:14;4.55;;;2.50;;
52838;SDS011;39219;53.678;9.856;2022-07-29T15:15:40;4.70;;;2.70;;
52838;SDS011;39219;53.678;9.856;2022-07-29T15:18:07;7.03;;;2.30;;
52838;SDS011;39219;53.678;9.856;2022-07-29T15:20:34;4.90;;;2.50;;